BAW858V EGLL-LKPR
Flight info
| Callsign | BAW858V |
|---|---|
| Flight time | 1h 32m |
| Altitude | 37000 |
| Route | BPK Q295 BRAIN M197 REDFA DCT TACHA DCT NOMKA DCT SUVUT L620 PIKIB T620 LALUK DCT GOLOP |
| Aircraft | A319/M-L/LB1 |
Departure
| Time | 2026-05-04 19:33 |
|---|---|
| Airport | London Heathrow Airport (EGLL) |
Arrival
| Time | 2026-05-04 21:05 |
|---|---|
| Airport | Václav Havel Airport Prague (LKPR) |
| Time | Latitude | Longitude | Altitude | Speed | Heading |
|---|---|---|---|---|---|
| 2026-05-04 19:18 | 51.46926 | -0.48789 | 89 ft | 0 kts | 359° |
| 2026-05-04 19:26 | 51.46912 | -0.48789 | 87 ft | 2 kts | 359° |
| 2026-05-04 19:27 | 51.46890 | -0.48787 | 89 ft | 4 kts | 333° |
| 2026-05-04 19:27 | 51.46876 | -0.48760 | 86 ft | 4 kts | 272° |
| 2026-05-04 19:27 | 51.46876 | -0.48720 | 86 ft | 4 kts | 269° |
| 2026-05-04 19:27 | 51.46876 | -0.48702 | 85 ft | 0 kts | 269° |
| 2026-05-04 19:29 | 51.46876 | -0.48706 | 85 ft | 3 kts | 269° |
| 2026-05-04 19:30 | 51.46855 | -0.48755 | 86 ft | 11 kts | 197° |
| 2026-05-04 19:30 | 51.46759 | -0.48751 | 85 ft | 16 kts | 179° |
| 2026-05-04 19:30 | 51.46654 | -0.48701 | 88 ft | 17 kts | 105° |
| 2026-05-04 19:30 | 51.46651 | -0.48520 | 88 ft | 14 kts | 90° |
| 2026-05-04 19:31 | 51.46606 | -0.48470 | 89 ft | 9 kts | 180° |
| 2026-05-04 19:31 | 51.46586 | -0.48470 | 89 ft | 2 kts | 180° |
| 2026-05-04 19:31 | 51.46579 | -0.48470 | 89 ft | 0 kts | 180° |
| 2026-05-04 19:32 | 51.46536 | -0.48470 | 89 ft | 14 kts | 180° |
| 2026-05-04 19:32 | 51.46479 | -0.48412 | 87 ft | 11 kts | 88° |
| 2026-05-04 19:32 | 51.46479 | -0.47997 | 83 ft | 70 kts | 89° |
| 2026-05-04 19:33 | 51.46484 | -0.46895 | 88 ft | 125 kts | 90° |
| 2026-05-04 19:33 | 51.46490 | -0.45240 | 127 ft | 166 kts | 88° |
| 2026-05-04 19:33 | 51.46481 | -0.43393 | 737 ft | 166 kts | 89° |
| 2026-05-04 19:33 | 51.46539 | -0.41520 | 1311 ft | 172 kts | 73° |
| 2026-05-04 19:34 | 51.47191 | -0.39856 | 1746 ft | 186 kts | 44° |
| 2026-05-04 19:34 | 51.48031 | -0.38353 | 2582 ft | 176 kts | 49° |
| 2026-05-04 19:34 | 51.48839 | -0.36814 | 3105 ft | 189 kts | 51° |
| 2026-05-04 19:34 | 51.49725 | -0.35087 | 3446 ft | 210 kts | 51° |
| 2026-05-04 19:35 | 51.50702 | -0.33168 | 3865 ft | 231 kts | 51° |
| 2026-05-04 19:35 | 51.51745 | -0.31103 | 4502 ft | 248 kts | 51° |
| 2026-05-04 19:35 | 51.52664 | -0.28653 | 5188 ft | 263 kts | 64° |
| 2026-05-04 19:35 | 51.53423 | -0.25933 | 6069 ft | 270 kts | 66° |
| 2026-05-04 19:36 | 51.54177 | -0.23175 | 6922 ft | 276 kts | 66° |
| 2026-05-04 19:36 | 51.54959 | -0.20326 | 7783 ft | 281 kts | 66° |
| 2026-05-04 19:36 | 51.55764 | -0.17414 | 8668 ft | 286 kts | 66° |
| 2026-05-04 19:36 | 51.56589 | -0.14474 | 9548 ft | 291 kts | 64° |
| 2026-05-04 19:37 | 51.57723 | -0.11728 | 10284 ft | 301 kts | 52° |
| 2026-05-04 19:37 | 51.59057 | -0.08966 | 10548 ft | 324 kts | 51° |
| 2026-05-04 19:37 | 51.60491 | -0.06017 | 10914 ft | 342 kts | 51° |
| 2026-05-04 19:37 | 51.61975 | -0.02972 | 11614 ft | 346 kts | 51° |
| 2026-05-04 19:38 | 51.63469 | 0.00082 | 12364 ft | 349 kts | 51° |
| 2026-05-04 19:38 | 51.64978 | 0.03149 | 13177 ft | 350 kts | 51° |
| 2026-05-04 19:38 | 51.66481 | 0.06188 | 13928 ft | 352 kts | 51° |
| 2026-05-04 19:38 | 51.68017 | 0.09283 | 14572 ft | 356 kts | 51° |
| 2026-05-04 19:39 | 51.69582 | 0.12425 | 15189 ft | 360 kts | 51° |
| 2026-05-04 19:39 | 51.71162 | 0.15585 | 15805 ft | 365 kts | 51° |
| 2026-05-04 19:39 | 51.72767 | 0.18785 | 16422 ft | 368 kts | 51° |
| 2026-05-04 19:39 | 51.74392 | 0.22017 | 17012 ft | 373 kts | 51° |
| 2026-05-04 19:40 | 51.76041 | 0.25283 | 17618 ft | 378 kts | 51° |
| 2026-05-04 19:40 | 51.77700 | 0.28602 | 18217 ft | 382 kts | 54° |
| 2026-05-04 19:40 | 51.78951 | 0.32389 | 18708 ft | 385 kts | 72° |
| 2026-05-04 19:40 | 51.79669 | 0.36565 | 19281 ft | 387 kts | 77° |
| 2026-05-04 19:41 | 51.80347 | 0.40789 | 19844 ft | 390 kts | 77° |
| 2026-05-04 19:41 | 51.81021 | 0.45046 | 20420 ft | 393 kts | 77° |
| 2026-05-04 19:41 | 51.81700 | 0.49362 | 20883 ft | 399 kts | 77° |
| 2026-05-04 19:41 | 51.82385 | 0.53722 | 21404 ft | 402 kts | 77° |
| 2026-05-04 19:42 | 51.83081 | 0.58135 | 21944 ft | 406 kts | 77° |
| 2026-05-04 19:42 | 51.83783 | 0.62572 | 22470 ft | 409 kts | 77° |
| 2026-05-04 19:42 | 51.84487 | 0.67045 | 22978 ft | 412 kts | 77° |
| 2026-05-04 19:42 | 51.85196 | 0.71552 | 23477 ft | 415 kts | 77° |
| 2026-05-04 19:43 | 51.85897 | 0.76038 | 23912 ft | 418 kts | 77° |
| 2026-05-04 19:43 | 51.86618 | 0.80672 | 24338 ft | 421 kts | 77° |
| 2026-05-04 19:43 | 51.87332 | 0.85279 | 24765 ft | 423 kts | 77° |
| 2026-05-04 19:43 | 51.88042 | 0.89851 | 25171 ft | 426 kts | 77° |
| 2026-05-04 19:44 | 51.88768 | 0.94517 | 25581 ft | 429 kts | 77° |
| 2026-05-04 19:44 | 51.89495 | 0.99219 | 25963 ft | 432 kts | 77° |
| 2026-05-04 19:44 | 51.90224 | 1.03953 | 26340 ft | 435 kts | 77° |
| 2026-05-04 19:44 | 51.90957 | 1.08729 | 26730 ft | 438 kts | 78° |
| 2026-05-04 19:45 | 51.91693 | 1.13536 | 27133 ft | 441 kts | 78° |
| 2026-05-04 19:45 | 51.92428 | 1.18367 | 27533 ft | 444 kts | 78° |
| 2026-05-04 19:45 | 51.93165 | 1.23234 | 27929 ft | 446 kts | 78° |
| 2026-05-04 19:45 | 51.93906 | 1.28142 | 28319 ft | 449 kts | 78° |
| 2026-05-04 19:46 | 51.94647 | 1.33069 | 28704 ft | 451 kts | 78° |
| 2026-05-04 19:46 | 51.95391 | 1.38034 | 29078 ft | 454 kts | 78° |
| 2026-05-04 19:46 | 51.96129 | 1.42956 | 29443 ft | 457 kts | 78° |
| 2026-05-04 19:46 | 51.96882 | 1.47973 | 29784 ft | 459 kts | 78° |
| 2026-05-04 19:47 | 51.97638 | 1.53020 | 30118 ft | 462 kts | 78° |
| 2026-05-04 19:47 | 51.98399 | 1.58107 | 30410 ft | 465 kts | 78° |
| 2026-05-04 19:47 | 51.99157 | 1.63212 | 30711 ft | 467 kts | 78° |
| 2026-05-04 19:47 | 51.99914 | 1.68347 | 31010 ft | 468 kts | 78° |
| 2026-05-04 19:48 | 52.00669 | 1.73503 | 31304 ft | 470 kts | 78° |
| 2026-05-04 19:48 | 52.01425 | 1.78666 | 31696 ft | 469 kts | 78° |
| 2026-05-04 19:48 | 52.02178 | 1.83815 | 32128 ft | 468 kts | 78° |
| 2026-05-04 19:48 | 52.02928 | 1.88953 | 32558 ft | 467 kts | 78° |
| 2026-05-04 19:49 | 52.03674 | 1.94073 | 32957 ft | 466 kts | 78° |
| 2026-05-04 19:49 | 52.04418 | 1.99206 | 33345 ft | 465 kts | 78° |
| 2026-05-04 19:49 | 52.05158 | 2.04324 | 33747 ft | 465 kts | 78° |
| 2026-05-04 19:49 | 52.05884 | 2.09366 | 34140 ft | 464 kts | 78° |
| 2026-05-04 19:50 | 52.06615 | 2.14472 | 34488 ft | 464 kts | 78° |
| 2026-05-04 19:50 | 52.07341 | 2.19576 | 34813 ft | 463 kts | 78° |
| 2026-05-04 19:50 | 52.08064 | 2.24681 | 35129 ft | 463 kts | 78° |
| 2026-05-04 19:50 | 52.08784 | 2.29790 | 35433 ft | 464 kts | 78° |
| 2026-05-04 19:51 | 52.09503 | 2.34901 | 35726 ft | 464 kts | 78° |
| 2026-05-04 19:51 | 52.10224 | 2.40017 | 36016 ft | 464 kts | 78° |
| 2026-05-04 19:51 | 52.10945 | 2.45131 | 36301 ft | 464 kts | 78° |
| 2026-05-04 19:51 | 52.11682 | 2.50244 | 36535 ft | 465 kts | 77° |
| 2026-05-04 19:52 | 52.12530 | 2.55322 | 36796 ft | 466 kts | 75° |
| 2026-05-04 19:52 | 52.13483 | 2.60367 | 36991 ft | 467 kts | 73° |
| 2026-05-04 19:52 | 52.14495 | 2.65388 | 37041 ft | 467 kts | 73° |
| 2026-05-04 19:53 | 52.16520 | 2.75370 | 37041 ft | 466 kts | 73° |
| 2026-05-04 19:53 | 52.18463 | 2.85439 | 37043 ft | 466 kts | 74° |
| 2026-05-04 19:54 | 52.20336 | 2.95545 | 37042 ft | 466 kts | 75° |
| 2026-05-04 19:54 | 52.22196 | 3.05666 | 37035 ft | 466 kts | 75° |
| 2026-05-04 19:55 | 52.24064 | 3.15788 | 37031 ft | 466 kts | 75° |
| 2026-05-04 19:55 | 52.25199 | 3.26132 | 37028 ft | 463 kts | 91° |
| 2026-05-04 19:56 | 52.24618 | 3.36529 | 37020 ft | 460 kts | 100° |
| 2026-05-04 19:56 | 52.23781 | 3.46907 | 37009 ft | 461 kts | 100° |
| 2026-05-04 19:57 | 52.22951 | 3.57201 | 37005 ft | 461 kts | 100° |
| 2026-05-04 19:57 | 52.22099 | 3.67563 | 37021 ft | 461 kts | 100° |
| 2026-05-04 19:58 | 52.21237 | 3.77915 | 37024 ft | 460 kts | 100° |
| 2026-05-04 19:58 | 52.20376 | 3.88260 | 37026 ft | 460 kts | 100° |
| 2026-05-04 19:59 | 52.19497 | 3.98599 | 37012 ft | 460 kts | 101° |
| 2026-05-04 19:59 | 52.18607 | 4.08925 | 37013 ft | 460 kts | 101° |
| 2026-05-04 20:00 | 52.17712 | 4.19253 | 37008 ft | 460 kts | 101° |
| 2026-05-04 20:00 | 52.16812 | 4.29576 | 37010 ft | 460 kts | 101° |
| 2026-05-04 20:01 | 52.15898 | 4.39904 | 36999 ft | 460 kts | 101° |
| 2026-05-04 20:01 | 52.14972 | 4.50219 | 36999 ft | 460 kts | 101° |
| 2026-05-04 20:02 | 52.14042 | 4.60455 | 36994 ft | 460 kts | 101° |
| 2026-05-04 20:02 | 52.13100 | 4.70763 | 36999 ft | 460 kts | 101° |
| 2026-05-04 20:03 | 52.12149 | 4.81063 | 36999 ft | 460 kts | 101° |
| 2026-05-04 20:03 | 52.11187 | 4.91352 | 36990 ft | 460 kts | 101° |
| 2026-05-04 20:04 | 52.10218 | 5.01641 | 36986 ft | 460 kts | 102° |
| 2026-05-04 20:04 | 52.09238 | 5.11940 | 36984 ft | 460 kts | 102° |
| 2026-05-04 20:05 | 52.08252 | 5.22233 | 36988 ft | 461 kts | 102° |
| 2026-05-04 20:05 | 52.07254 | 5.32527 | 36986 ft | 461 kts | 102° |
| 2026-05-04 20:06 | 52.06252 | 5.42810 | 36974 ft | 461 kts | 102° |
| 2026-05-04 20:06 | 52.05236 | 5.53088 | 36980 ft | 460 kts | 102° |
| 2026-05-04 20:07 | 52.04216 | 5.63356 | 36974 ft | 460 kts | 102° |
| 2026-05-04 20:07 | 52.03189 | 5.73616 | 36975 ft | 460 kts | 102° |
| 2026-05-04 20:08 | 52.02146 | 5.83878 | 36989 ft | 460 kts | 102° |
| 2026-05-04 20:08 | 52.01107 | 5.94056 | 36966 ft | 460 kts | 103° |
| 2026-05-04 20:09 | 52.00050 | 6.04312 | 36963 ft | 461 kts | 103° |
| 2026-05-04 20:09 | 51.98981 | 6.14568 | 36962 ft | 461 kts | 103° |
| 2026-05-04 20:10 | 51.97899 | 6.24829 | 36968 ft | 461 kts | 103° |
| 2026-05-04 20:10 | 51.96822 | 6.35086 | 36968 ft | 461 kts | 103° |
| 2026-05-04 20:11 | 51.95717 | 6.45335 | 36949 ft | 462 kts | 103° |
| 2026-05-04 20:11 | 51.94603 | 6.55588 | 36964 ft | 462 kts | 103° |
| 2026-05-04 20:12 | 51.93491 | 6.65869 | 36953 ft | 463 kts | 103° |
| 2026-05-04 20:12 | 51.92374 | 6.76142 | 36956 ft | 463 kts | 104° |
| 2026-05-04 20:13 | 51.91233 | 6.86404 | 36947 ft | 463 kts | 104° |
| 2026-05-04 20:13 | 51.90084 | 6.96672 | 36946 ft | 464 kts | 104° |
| 2026-05-04 20:14 | 51.88928 | 7.06956 | 36965 ft | 464 kts | 104° |
| 2026-05-04 20:14 | 51.87770 | 7.17170 | 36958 ft | 465 kts | 104° |
| 2026-05-04 20:15 | 51.86597 | 7.27453 | 36971 ft | 465 kts | 104° |
| 2026-05-04 20:15 | 51.85412 | 7.37739 | 36953 ft | 465 kts | 104° |
| 2026-05-04 20:16 | 51.84212 | 7.48021 | 36954 ft | 466 kts | 104° |
| 2026-05-04 20:16 | 51.83010 | 7.58313 | 36964 ft | 466 kts | 104° |
| 2026-05-04 20:17 | 51.82003 | 7.66869 | 36972 ft | 466 kts | 104° |
| 2026-05-04 20:17 | 51.80783 | 7.77157 | 36971 ft | 466 kts | 104° |
| 2026-05-04 20:18 | 51.79545 | 7.87506 | 36954 ft | 467 kts | 105° |
| 2026-05-04 20:18 | 51.78310 | 7.97729 | 36964 ft | 467 kts | 105° |
| 2026-05-04 20:19 | 51.77059 | 8.08021 | 36971 ft | 467 kts | 105° |
| 2026-05-04 20:19 | 51.75795 | 8.18319 | 36978 ft | 467 kts | 105° |
| 2026-05-04 20:20 | 51.74534 | 8.28593 | 36968 ft | 466 kts | 105° |
| 2026-05-04 20:20 | 51.73256 | 8.38851 | 36977 ft | 467 kts | 105° |
| 2026-05-04 20:21 | 51.71962 | 8.49124 | 36991 ft | 467 kts | 105° |
| 2026-05-04 20:21 | 51.70018 | 8.64516 | 36997 ft | 467 kts | 105° |
| 2026-05-04 20:22 | 51.68714 | 8.74773 | 36982 ft | 467 kts | 105° |
| 2026-05-04 20:22 | 51.67390 | 8.85027 | 36983 ft | 468 kts | 105° |
| 2026-05-04 20:23 | 51.66052 | 8.95286 | 36979 ft | 468 kts | 105° |
| 2026-05-04 20:23 | 51.64720 | 9.05471 | 36987 ft | 468 kts | 105° |
| 2026-05-04 20:24 | 51.63371 | 9.15724 | 36983 ft | 468 kts | 106° |
| 2026-05-04 20:24 | 51.62018 | 9.25970 | 36983 ft | 468 kts | 106° |
| 2026-05-04 20:25 | 51.60658 | 9.36212 | 36992 ft | 468 kts | 106° |
| 2026-05-04 20:25 | 51.59275 | 9.46454 | 36999 ft | 468 kts | 106° |
| 2026-05-04 20:26 | 51.57887 | 9.56681 | 36995 ft | 468 kts | 106° |
| 2026-05-04 20:26 | 51.56498 | 9.66902 | 36991 ft | 468 kts | 106° |
| 2026-05-04 20:27 | 51.55102 | 9.77122 | 36987 ft | 468 kts | 106° |
| 2026-05-04 20:27 | 51.53686 | 9.87330 | 36994 ft | 468 kts | 106° |
| 2026-05-04 20:28 | 51.52258 | 9.97526 | 36993 ft | 468 kts | 106° |
| 2026-05-04 20:28 | 51.50836 | 10.07659 | 36985 ft | 468 kts | 106° |
| 2026-05-04 20:29 | 51.49400 | 10.17855 | 36969 ft | 468 kts | 106° |
| 2026-05-04 20:29 | 51.47959 | 10.28043 | 36975 ft | 468 kts | 106° |
| 2026-05-04 20:30 | 51.46505 | 10.38216 | 36982 ft | 468 kts | 107° |
| 2026-05-04 20:30 | 51.45039 | 10.48382 | 36984 ft | 468 kts | 107° |
| 2026-05-04 20:31 | 51.43513 | 10.58511 | 36988 ft | 467 kts | 108° |
| 2026-05-04 20:31 | 51.41894 | 10.68597 | 36979 ft | 467 kts | 108° |
| 2026-05-04 20:32 | 51.40265 | 10.78672 | 36982 ft | 467 kts | 108° |
| 2026-05-04 20:32 | 51.38662 | 10.88684 | 36985 ft | 467 kts | 108° |
| 2026-05-04 20:33 | 51.37047 | 10.98737 | 36982 ft | 467 kts | 108° |
| 2026-05-04 20:33 | 51.35419 | 11.08790 | 36963 ft | 467 kts | 108° |
| 2026-05-04 20:34 | 51.33784 | 11.18837 | 36970 ft | 467 kts | 108° |
| 2026-05-04 20:34 | 51.32136 | 11.28883 | 36974 ft | 467 kts | 108° |
| 2026-05-04 20:35 | 51.30475 | 11.38919 | 36975 ft | 467 kts | 108° |
| 2026-05-04 20:35 | 51.28804 | 11.48948 | 36978 ft | 467 kts | 108° |
| 2026-05-04 20:36 | 51.27111 | 11.58959 | 36967 ft | 467 kts | 108° |
| 2026-05-04 20:36 | 51.25420 | 11.68979 | 36969 ft | 467 kts | 108° |
| 2026-05-04 20:37 | 51.23730 | 11.78991 | 36966 ft | 467 kts | 108° |
| 2026-05-04 20:37 | 51.22025 | 11.88998 | 36963 ft | 467 kts | 108° |
| 2026-05-04 20:38 | 51.20311 | 11.99004 | 36948 ft | 468 kts | 108° |
| 2026-05-04 20:38 | 51.18601 | 12.08998 | 36954 ft | 467 kts | 108° |
| 2026-05-04 20:39 | 51.16881 | 12.18992 | 36961 ft | 467 kts | 108° |
| 2026-05-04 20:39 | 51.15145 | 12.28961 | 36970 ft | 467 kts | 108° |
| 2026-05-04 20:40 | 51.13388 | 12.38905 | 36975 ft | 466 kts | 108° |
| 2026-05-04 20:40 | 51.11640 | 12.48768 | 36962 ft | 466 kts | 108° |
| 2026-05-04 20:41 | 51.09862 | 12.58701 | 36970 ft | 466 kts | 109° |
| 2026-05-04 20:41 | 51.08080 | 12.68618 | 36973 ft | 466 kts | 109° |
| 2026-05-04 20:42 | 51.06296 | 12.78516 | 36972 ft | 465 kts | 109° |
| 2026-05-04 20:42 | 51.04512 | 12.88335 | 36957 ft | 465 kts | 109° |
| 2026-05-04 20:43 | 51.02712 | 12.98207 | 36960 ft | 465 kts | 109° |
| 2026-05-04 20:43 | 51.01809 | 13.03146 | 36523 ft | 468 kts | 109° |
| 2026-05-04 20:43 | 51.00886 | 13.08172 | 35550 ft | 477 kts | 109° |
| 2026-05-04 20:44 | 50.99950 | 13.13249 | 34736 ft | 481 kts | 109° |
| 2026-05-04 20:44 | 50.99008 | 13.18346 | 33783 ft | 482 kts | 109° |
| 2026-05-04 20:44 | 50.98061 | 13.23450 | 32649 ft | 484 kts | 109° |
| 2026-05-04 20:44 | 50.97115 | 13.28534 | 32069 ft | 475 kts | 109° |
| 2026-05-04 20:45 | 50.96192 | 13.33499 | 31516 ft | 465 kts | 109° |
| 2026-05-04 20:45 | 50.95301 | 13.38394 | 30989 ft | 457 kts | 108° |
| 2026-05-04 20:45 | 50.94443 | 13.43209 | 30447 ft | 450 kts | 108° |
| 2026-05-04 20:45 | 50.93608 | 13.47946 | 29891 ft | 443 kts | 107° |
| 2026-05-04 20:46 | 50.92779 | 13.52609 | 29341 ft | 435 kts | 108° |
| 2026-05-04 20:46 | 50.91940 | 13.57191 | 28828 ft | 430 kts | 108° |
| 2026-05-04 20:46 | 50.91091 | 13.61716 | 28313 ft | 427 kts | 108° |
| 2026-05-04 20:46 | 50.90227 | 13.66206 | 27803 ft | 424 kts | 111° |
| 2026-05-04 20:47 | 50.89068 | 13.70458 | 27304 ft | 418 kts | 121° |
| 2026-05-04 20:47 | 50.87528 | 13.74322 | 26814 ft | 412 kts | 129° |
| 2026-05-04 20:47 | 50.85755 | 13.77784 | 26338 ft | 408 kts | 132° |
| 2026-05-04 20:47 | 50.83953 | 13.81236 | 25870 ft | 406 kts | 132° |
| 2026-05-04 20:48 | 50.82167 | 13.84671 | 25402 ft | 403 kts | 132° |
| 2026-05-04 20:48 | 50.80449 | 13.88166 | 24945 ft | 402 kts | 126° |
| 2026-05-04 20:48 | 50.79036 | 13.91980 | 24491 ft | 402 kts | 121° |
| 2026-05-04 20:48 | 50.77685 | 13.95842 | 24035 ft | 400 kts | 121° |
| 2026-05-04 20:49 | 50.76339 | 13.99679 | 23597 ft | 399 kts | 121° |
| 2026-05-04 20:49 | 50.74994 | 14.03500 | 23099 ft | 396 kts | 121° |
| 2026-05-04 20:49 | 50.73661 | 14.07272 | 22659 ft | 391 kts | 121° |
| 2026-05-04 20:49 | 50.72343 | 14.11000 | 22267 ft | 385 kts | 122° |
| 2026-05-04 20:50 | 50.71064 | 14.14616 | 22100 ft | 368 kts | 122° |
| 2026-05-04 20:50 | 50.69844 | 14.18064 | 21955 ft | 352 kts | 122° |
| 2026-05-04 20:50 | 50.68679 | 14.21359 | 21817 ft | 337 kts | 122° |
| 2026-05-04 20:50 | 50.67546 | 14.24549 | 21384 ft | 331 kts | 122° |
| 2026-05-04 20:51 | 50.66421 | 14.27701 | 20900 ft | 327 kts | 122° |
| 2026-05-04 20:51 | 50.65309 | 14.30804 | 20423 ft | 324 kts | 122° |
| 2026-05-04 20:51 | 50.64207 | 14.33885 | 19902 ft | 322 kts | 122° |
| 2026-05-04 20:51 | 50.63134 | 14.36910 | 19398 ft | 320 kts | 122° |
| 2026-05-04 20:52 | 50.62051 | 14.39972 | 18898 ft | 319 kts | 122° |
| 2026-05-04 20:52 | 50.60978 | 14.43013 | 18406 ft | 317 kts | 122° |
| 2026-05-04 20:52 | 50.59911 | 14.46041 | 17867 ft | 316 kts | 122° |
| 2026-05-04 20:52 | 50.58763 | 14.48953 | 17298 ft | 309 kts | 136° |
| 2026-05-04 20:53 | 50.57092 | 14.50943 | 16748 ft | 296 kts | 161° |
| 2026-05-04 20:53 | 50.55132 | 14.51564 | 16214 ft | 285 kts | 186° |
| 2026-05-04 20:53 | 50.53196 | 14.51097 | 15690 ft | 280 kts | 194° |
| 2026-05-04 20:53 | 50.51298 | 14.50443 | 15169 ft | 278 kts | 195° |
| 2026-05-04 20:54 | 50.49413 | 14.49776 | 14660 ft | 277 kts | 195° |
| 2026-05-04 20:54 | 50.47533 | 14.49113 | 14156 ft | 275 kts | 195° |
| 2026-05-04 20:54 | 50.45691 | 14.48464 | 13654 ft | 273 kts | 195° |
| 2026-05-04 20:54 | 50.43844 | 14.47814 | 13091 ft | 272 kts | 195° |
| 2026-05-04 20:55 | 50.42004 | 14.47164 | 12530 ft | 270 kts | 195° |
| 2026-05-04 20:55 | 50.40172 | 14.46505 | 11991 ft | 269 kts | 195° |
| 2026-05-04 20:55 | 50.38347 | 14.45841 | 11448 ft | 269 kts | 195° |
| 2026-05-04 20:55 | 50.36523 | 14.45182 | 10919 ft | 269 kts | 192° |
| 2026-05-04 20:56 | 50.34662 | 14.45297 | 10385 ft | 272 kts | 165° |
| 2026-05-04 20:56 | 50.32920 | 14.46464 | 9852 ft | 273 kts | 156° |
| 2026-05-04 20:56 | 50.31222 | 14.47790 | 9281 ft | 272 kts | 155° |
| 2026-05-04 20:56 | 50.29531 | 14.49117 | 8712 ft | 271 kts | 155° |
| 2026-05-04 20:57 | 50.27862 | 14.50418 | 8153 ft | 270 kts | 155° |
| 2026-05-04 20:57 | 50.26178 | 14.51716 | 7601 ft | 269 kts | 155° |
| 2026-05-04 20:57 | 50.24499 | 14.53009 | 7060 ft | 268 kts | 153° |
| 2026-05-04 20:57 | 50.23122 | 14.54905 | 6667 ft | 262 kts | 122° |
| 2026-05-04 20:58 | 50.22571 | 14.57492 | 6549 ft | 246 kts | 92° |
| 2026-05-04 20:58 | 50.22933 | 14.59969 | 6420 ft | 228 kts | 58° |
| 2026-05-04 20:58 | 50.23925 | 14.61779 | 6262 ft | 212 kts | 43° |
| 2026-05-04 20:58 | 50.25079 | 14.63068 | 5960 ft | 201 kts | 19° |
| 2026-05-04 20:59 | 50.26438 | 14.63105 | 5515 ft | 198 kts | 340° |
| 2026-05-04 20:59 | 50.27502 | 14.61819 | 5073 ft | 195 kts | 301° |
| 2026-05-04 20:59 | 50.27795 | 14.59809 | 4607 ft | 192 kts | 261° |
| 2026-05-04 20:59 | 50.27201 | 14.57999 | 4164 ft | 190 kts | 221° |
| 2026-05-04 21:00 | 50.26128 | 14.56839 | 3981 ft | 188 kts | 210° |
| 2026-05-04 21:00 | 50.25006 | 14.55728 | 3975 ft | 191 kts | 210° |
| 2026-05-04 21:00 | 50.23877 | 14.54613 | 3972 ft | 192 kts | 210° |
| 2026-05-04 21:00 | 50.22759 | 14.53510 | 3979 ft | 192 kts | 210° |
| 2026-05-04 21:01 | 50.21626 | 14.52395 | 3975 ft | 192 kts | 210° |
| 2026-05-04 21:01 | 50.20496 | 14.51285 | 3978 ft | 192 kts | 210° |
| 2026-05-04 21:01 | 50.19366 | 14.50177 | 3979 ft | 192 kts | 210° |
| 2026-05-04 21:01 | 50.18271 | 14.48997 | 3963 ft | 188 kts | 221° |
| 2026-05-04 21:02 | 50.17555 | 14.47366 | 3852 ft | 180 kts | 243° |
| 2026-05-04 21:02 | 50.17038 | 14.45621 | 3655 ft | 175 kts | 243° |
| 2026-05-04 21:02 | 50.16529 | 14.43903 | 3440 ft | 174 kts | 243° |
| 2026-05-04 21:02 | 50.16022 | 14.42194 | 3240 ft | 174 kts | 243° |
| 2026-05-04 21:03 | 50.15514 | 14.40486 | 3010 ft | 173 kts | 242° |
| 2026-05-04 21:03 | 50.15006 | 14.38779 | 2793 ft | 173 kts | 243° |
| 2026-05-04 21:03 | 50.14506 | 14.37097 | 2549 ft | 174 kts | 243° |
| 2026-05-04 21:03 | 50.13994 | 14.35381 | 2340 ft | 175 kts | 243° |
| 2026-05-04 21:04 | 50.13493 | 14.33695 | 2095 ft | 162 kts | 244° |
| 2026-05-04 21:04 | 50.13043 | 14.32169 | 1831 ft | 146 kts | 245° |
| 2026-05-04 21:04 | 50.12622 | 14.30768 | 1680 ft | 141 kts | 245° |
| 2026-05-04 21:04 | 50.12353 | 14.29862 | 1566 ft | 138 kts | 245° |
| 2026-05-04 21:05 | 50.11953 | 14.28522 | 1376 ft | 135 kts | 245° |
| 2026-05-04 21:05 | 50.11557 | 14.27200 | 1203 ft | 133 kts | 245° |
| 2026-05-04 21:05 | 50.11226 | 14.26100 | 1166 ft | 76 kts | 244° |
| 2026-05-04 21:05 | 50.11118 | 14.25885 | 1167 ft | 12 kts | 133° |
| 2026-05-04 21:06 | 50.11119 | 14.25976 | 1168 ft | 9 kts | 102° |
| 2026-05-04 21:06 | 50.11108 | 14.26086 | 1169 ft | 11 kts | 97° |
| 2026-05-04 21:06 | 50.11096 | 14.26228 | 1166 ft | 15 kts | 99° |
| 2026-05-04 21:06 | 50.11082 | 14.26396 | 1169 ft | 11 kts | 99° |
| 2026-05-04 21:07 | 50.11072 | 14.26498 | 1170 ft | 9 kts | 97° |
| 2026-05-04 21:07 | 50.11068 | 14.26626 | 1174 ft | 12 kts | 118° |
| 2026-05-04 21:07 | 50.11056 | 14.26720 | 1176 ft | 8 kts | 85° |
| 2026-05-04 21:07 | 50.11061 | 14.26757 | 1176 ft | 0 kts | 67° |